sensor_id;sensor_type;location;lat;lon;timestamp;temperature;humidity
39493;DHT22;25176;51.060;3.720;2023-12-20T00:00:16;8.30;99.90
39493;DHT22;25176;51.060;3.720;2023-12-20T00:02:42;8.30;99.90
39493;DHT22;25176;51.060;3.720;2023-12-20T00:05:12;8.30;99.90
39493;DHT22;25176;51.060;3.720;2023-12-20T00:07:38;8.30;99.90
39493;DHT22;25176;51.060;3.720;2023-12-20T00:10:04;8.30;99.90
39493;DHT22;25176;51.060;3.720;2023-12-20T00:12:29;8.30;99.90
39493;DHT22;25176;51.060;3.720;2023-12-20T00:14:55;8.20;99.90
39493;DHT22;25176;51.060;3.720;2023-12-20T00:17:20;8.20;99.90
39493;DHT22;25176;51.060;3.720;2023-12-20T00:19:46;8.20;99.90
39493;DHT22;25176;51.060;3.720;2023-12-20T00:22:11;8.10;99.90
39493;DHT22;25176;51.060;3.720;2023-12-20T00:24:37;8.10;99.90
39493;DHT22;25176;51.060;3.720;2023-12-20T00:27:02;8.20;99.90
39493;DHT22;25176;51.060;3.720;2023-12-20T00:29:28;8.20;99.90
39493;DHT22;25176;51.060;3.720;2023-12-20T00:31:53;8.20;99.90
39493;DHT22;25176;51.060;3.720;2023-12-20T00:34:19;8.20;99.90
39493;DHT22;25176;51.060;3.720;2023-12-20T00:36:44;8.20;99.90
39493;DHT22;25176;51.060;3.720;2023-12-20T00:39:10;8.20;99.90
39493;DHT22;25176;51.060;3.720;2023-12-20T00:41:35;8.20;99.90
39493;DHT22;25176;51.060;3.720;2023-12-20T00:44:01;8.20;99.90
39493;DHT22;25176;51.060;3.720;2023-12-20T00:46:26;8.10;99.90
39493;DHT22;25176;51.060;3.720;2023-12-20T00:48:52;8.00;99.90
39493;DHT22;25176;51.060;3.720;2023-12-20T00:51:17;8.00;99.90
39493;DHT22;25176;51.060;3.720;2023-12-20T00:53:43;8.00;99.90
39493;DHT22;25176;51.060;3.720;2023-12-20T00:56:08;8.00;99.90
39493;DHT22;25176;51.060;3.720;2023-12-20T00:58:34;8.00;99.90
39493;DHT22;25176;51.060;3.720;2023-12-20T01:01:00;8.10;99.90
39493;DHT22;25176;51.060;3.720;2023-12-20T01:03:25;8.10;99.90
39493;DHT22;25176;51.060;3.720;2023-12-20T01:05:51;8.10;99.90
39493;DHT22;25176;51.060;3.720;2023-12-20T01:08:16;8.10;99.90
39493;DHT22;25176;51.060;3.720;2023-12-20T01:10:42;8.10;99.90
39493;DHT22;25176;51.060;3.720;2023-12-20T01:13:07;8.10;99.90
39493;DHT22;25176;51.060;3.720;2023-12-20T01:15:34;8.00;99.90
39493;DHT22;25176;51.060;3.720;2023-12-20T01:17:59;8.10;99.90
39493;DHT22;25176;51.060;3.720;2023-12-20T01:20:25;8.10;99.90
39493;DHT22;25176;51.060;3.720;2023-12-20T01:22:50;8.10;99.90
39493;DHT22;25176;51.060;3.720;2023-12-20T01:25:16;8.20;99.90
39493;DHT22;25176;51.060;3.720;2023-12-20T01:27:41;8.20;99.90
39493;DHT22;25176;51.060;3.720;2023-12-20T01:30:07;8.10;99.90
39493;DHT22;25176;51.060;3.720;2023-12-20T01:32:33;8.20;99.90
39493;DHT22;25176;51.060;3.720;2023-12-20T01:34:58;8.20;99.90
39493;DHT22;25176;51.060;3.720;2023-12-20T01:37:24;8.20;99.90
39493;DHT22;25176;51.060;3.720;2023-12-20T01:39:50;8.20;99.90
39493;DHT22;25176;51.060;3.720;2023-12-20T01:42:16;8.20;99.90
39493;DHT22;25176;51.060;3.720;2023-12-20T01:44:41;8.20;99.90
39493;DHT22;25176;51.060;3.720;2023-12-20T01:47:07;8.20;99.90
39493;DHT22;25176;51.060;3.720;2023-12-20T01:49:33;8.20;99.90
39493;DHT22;25176;51.060;3.720;2023-12-20T01:51:58;8.30;99.90
39493;DHT22;25176;51.060;3.720;2023-12-20T01:54:24;8.30;99.90
39493;DHT22;25176;51.060;3.720;2023-12-20T01:56:50;8.30;99.90
39493;DHT22;25176;51.060;3.720;2023-12-20T01:59:16;8.30;99.90
39493;DHT22;25176;51.060;3.720;2023-12-20T02:01:42;8.30;99.90
39493;DHT22;25176;51.060;3.720;2023-12-20T02:04:07;8.30;99.90
39493;DHT22;25176;51.060;3.720;2023-12-20T02:06:33;8.30;99.90
39493;DHT22;25176;51.060;3.720;2023-12-20T02:08:59;8.30;99.90
39493;DHT22;25176;51.060;3.720;2023-12-20T02:11:25;8.40;99.90
39493;DHT22;25176;51.060;3.720;2023-12-20T02:13:50;8.40;99.90
39493;DHT22;25176;51.060;3.720;2023-12-20T02:16:16;8.40;99.90
39493;DHT22;25176;51.060;3.720;2023-12-20T02:18:42;8.40;99.90
39493;DHT22;25176;51.060;3.720;2023-12-20T02:21:09;8.40;99.90
39493;DHT22;25176;51.060;3.720;2023-12-20T02:23:34;8.40;99.90
39493;DHT22;25176;51.060;3.720;2023-12-20T02:26:00;8.60;99.90
39493;DHT22;25176;51.060;3.720;2023-12-20T02:28:26;8.70;99.90
39493;DHT22;25176;51.060;3.720;2023-12-20T02:30:51;8.70;99.90
39493;DHT22;25176;51.060;3.720;2023-12-20T02:33:17;8.60;99.90
39493;DHT22;25176;51.060;3.720;2023-12-20T02:35:42;8.60;99.90
39493;DHT22;25176;51.060;3.720;2023-12-20T02:38:08;8.70;99.90
39493;DHT22;25176;51.060;3.720;2023-12-20T02:40:33;8.60;99.90
39493;DHT22;25176;51.060;3.720;2023-12-20T02:42:59;8.70;99.90
39493;DHT22;25176;51.060;3.720;2023-12-20T02:45:25;8.60;99.90
39493;DHT22;25176;51.060;3.720;2023-12-20T02:47:51;8.70;99.90
39493;DHT22;25176;51.060;3.720;2023-12-20T02:50:16;8.70;99.90
39493;DHT22;25176;51.060;3.720;2023-12-20T02:52:44;8.70;99.90
39493;DHT22;25176;51.060;3.720;2023-12-20T02:55:09;8.70;99.90
39493;DHT22;25176;51.060;3.720;2023-12-20T02:57:35;8.70;99.90
39493;DHT22;25176;51.060;3.720;2023-12-20T03:00:01;8.70;99.90
39493;DHT22;25176;51.060;3.720;2023-12-20T03:02:27;8.70;99.90
39493;DHT22;25176;51.060;3.720;2023-12-20T03:04:52;8.70;99.90
39493;DHT22;25176;51.060;3.720;2023-12-20T03:07:18;8.70;99.90
39493;DHT22;25176;51.060;3.720;2023-12-20T03:09:43;8.80;99.90
39493;DHT22;25176;51.060;3.720;2023-12-20T03:12:09;8.80;99.90
39493;DHT22;25176;51.060;3.720;2023-12-20T03:14:34;8.80;99.90
39493;DHT22;25176;51.060;3.720;2023-12-20T03:17:00;8.80;99.90
39493;DHT22;25176;51.060;3.720;2023-12-20T03:19:25;8.80;99.90
39493;DHT22;25176;51.060;3.720;2023-12-20T03:21:51;8.90;99.90
39493;DHT22;25176;51.060;3.720;2023-12-20T03:24:18;8.90;99.90
39493;DHT22;25176;51.060;3.720;2023-12-20T03:26:43;8.80;99.90
39493;DHT22;25176;51.060;3.720;2023-12-20T03:29:09;8.70;99.90
39493;DHT22;25176;51.060;3.720;2023-12-20T03:31:34;8.70;99.90
39493;DHT22;25176;51.060;3.720;2023-12-20T03:34:00;8.60;99.90
39493;DHT22;25176;51.060;3.720;2023-12-20T03:36:25;8.60;99.90
39493;DHT22;25176;51.060;3.720;2023-12-20T03:38:51;8.60;99.90
39493;DHT22;25176;51.060;3.720;2023-12-20T03:41:16;8.60;99.90
39493;DHT22;25176;51.060;3.720;2023-12-20T03:43:42;8.60;99.90
39493;DHT22;25176;51.060;3.720;2023-12-20T03:46:08;8.70;99.90
39493;DHT22;25176;51.060;3.720;2023-12-20T03:48:34;8.70;99.90
39493;DHT22;25176;51.060;3.720;2023-12-20T03:50:59;8.70;99.90
39493;DHT22;25176;51.060;3.720;2023-12-20T03:53:25;8.70;99.90
39493;DHT22;25176;51.060;3.720;2023-12-20T03:55:50;8.70;99.90
39493;DHT22;25176;51.060;3.720;2023-12-20T03:58:16;8.70;99.90
39493;DHT22;25176;51.060;3.720;2023-12-20T04:00:41;8.60;99.90
39493;DHT22;25176;51.060;3.720;2023-12-20T04:03:07;8.70;99.90
39493;DHT22;25176;51.060;3.720;2023-12-20T04:05:32;8.60;99.90
39493;DHT22;25176;51.060;3.720;2023-12-20T04:07:59;8.70;99.90
39493;DHT22;25176;51.060;3.720;2023-12-20T04:10:24;8.70;99.90
39493;DHT22;25176;51.060;3.720;2023-12-20T04:12:50;8.60;99.90
39493;DHT22;25176;51.060;3.720;2023-12-20T04:15:15;8.60;99.90
39493;DHT22;25176;51.060;3.720;2023-12-20T04:17:41;8.60;99.90
39493;DHT22;25176;51.060;3.720;2023-12-20T04:20:07;8.50;99.90
39493;DHT22;25176;51.060;3.720;2023-12-20T04:22:32;8.60;99.90
39493;DHT22;25176;51.060;3.720;2023-12-20T04:24:58;8.50;99.90
39493;DHT22;25176;51.060;3.720;2023-12-20T04:27:23;8.50;99.90
39493;DHT22;25176;51.060;3.720;2023-12-20T04:29:49;8.50;99.90
39493;DHT22;25176;51.060;3.720;2023-12-20T04:32:14;8.50;99.90
39493;DHT22;25176;51.060;3.720;2023-12-20T04:34:40;8.60;99.90
39493;DHT22;25176;51.060;3.720;2023-12-20T04:37:05;8.50;99.90
39493;DHT22;25176;51.060;3.720;2023-12-20T04:39:31;8.60;99.90
39493;DHT22;25176;51.060;3.720;2023-12-20T04:41:56;8.60;99.90
39493;DHT22;25176;51.060;3.720;2023-12-20T04:44:22;8.50;99.90
39493;DHT22;25176;51.060;3.720;2023-12-20T04:46:47;8.40;99.90
39493;DHT22;25176;51.060;3.720;2023-12-20T04:49:13;8.40;99.90
39493;DHT22;25176;51.060;3.720;2023-12-20T04:51:38;8.40;99.90
39493;DHT22;25176;51.060;3.720;2023-12-20T04:54:04;8.40;99.90
39493;DHT22;25176;51.060;3.720;2023-12-20T04:56:29;8.30;99.90
39493;DHT22;25176;51.060;3.720;2023-12-20T04:58:55;8.30;99.90
39493;DHT22;25176;51.060;3.720;2023-12-20T05:01:20;8.20;99.90
39493;DHT22;25176;51.060;3.720;2023-12-20T05:03:47;8.20;99.90
39493;DHT22;25176;51.060;3.720;2023-12-20T05:06:12;8.10;99.90
39493;DHT22;25176;51.060;3.720;2023-12-20T05:08:38;8.10;99.90
39493;DHT22;25176;51.060;3.720;2023-12-20T05:11:03;8.20;99.90
39493;DHT22;25176;51.060;3.720;2023-12-20T05:13:29;8.10;99.90
39493;DHT22;25176;51.060;3.720;2023-12-20T05:15:55;8.10;99.90
39493;DHT22;25176;51.060;3.720;2023-12-20T05:18:20;8.10;99.90
39493;DHT22;25176;51.060;3.720;2023-12-20T05:20:46;8.10;99.90
39493;DHT22;25176;51.060;3.720;2023-12-20T05:23:12;8.10;99.90
39493;DHT22;25176;51.060;3.720;2023-12-20T05:25:38;8.20;99.90
39493;DHT22;25176;51.060;3.720;2023-12-20T05:28:04;8.10;99.90
39493;DHT22;25176;51.060;3.720;2023-12-20T05:30:30;8.10;99.90
39493;DHT22;25176;51.060;3.720;2023-12-20T05:32:55;8.20;99.90
39493;DHT22;25176;51.060;3.720;2023-12-20T05:35:21;8.10;99.90
39493;DHT22;25176;51.060;3.720;2023-12-20T05:37:49;8.20;99.90
39493;DHT22;25176;51.060;3.720;2023-12-20T05:40:14;8.20;99.90
39493;DHT22;25176;51.060;3.720;2023-12-20T05:42:40;8.20;99.90
39493;DHT22;25176;51.060;3.720;2023-12-20T05:45:05;8.20;99.90
39493;DHT22;25176;51.060;3.720;2023-12-20T05:47:31;8.20;99.90
39493;DHT22;25176;51.060;3.720;2023-12-20T05:49:56;8.10;99.90
39493;DHT22;25176;51.060;3.720;2023-12-20T05:52:22;8.10;99.90
39493;DHT22;25176;51.060;3.720;2023-12-20T05:54:48;8.10;99.90
39493;DHT22;25176;51.060;3.720;2023-12-20T05:57:13;8.10;99.90
39493;DHT22;25176;51.060;3.720;2023-12-20T05:59:39;8.00;99.90
39493;DHT22;25176;51.060;3.720;2023-12-20T06:02:05;7.90;99.90
39493;DHT22;25176;51.060;3.720;2023-12-20T06:04:30;8.00;99.90
39493;DHT22;25176;51.060;3.720;2023-12-20T06:06:56;7.90;99.90
39493;DHT22;25176;51.060;3.720;2023-12-20T06:09:21;7.80;99.90
39493;DHT22;25176;51.060;3.720;2023-12-20T06:11:47;7.90;99.90
39493;DHT22;25176;51.060;3.720;2023-12-20T06:14:12;7.80;99.90
39493;DHT22;25176;51.060;3.720;2023-12-20T06:16:38;7.80;99.90
39493;DHT22;25176;51.060;3.720;2023-12-20T06:19:03;7.80;99.90
39493;DHT22;25176;51.060;3.720;2023-12-20T06:21:29;7.80;99.90
39493;DHT22;25176;51.060;3.720;2023-12-20T06:23:54;7.70;99.90
39493;DHT22;25176;51.060;3.720;2023-12-20T06:26:20;7.70;99.90
39493;DHT22;25176;51.060;3.720;2023-12-20T06:28:45;7.70;99.90
39493;DHT22;25176;51.060;3.720;2023-12-20T06:31:11;7.60;99.90
39493;DHT22;25176;51.060;3.720;2023-12-20T06:33:37;7.60;99.90
39493;DHT22;25176;51.060;3.720;2023-12-20T06:36:02;7.60;99.90
39493;DHT22;25176;51.060;3.720;2023-12-20T06:38:28;7.60;99.90
39493;DHT22;25176;51.060;3.720;2023-12-20T06:40:54;7.60;99.90
39493;DHT22;25176;51.060;3.720;2023-12-20T06:43:19;7.60;99.90
39493;DHT22;25176;51.060;3.720;2023-12-20T06:45:45;7.60;99.90
39493;DHT22;25176;51.060;3.720;2023-12-20T06:48:11;7.60;99.90
39493;DHT22;25176;51.060;3.720;2023-12-20T06:50:38;7.50;99.90
39493;DHT22;25176;51.060;3.720;2023-12-20T06:53:05;7.60;99.90
39493;DHT22;25176;51.060;3.720;2023-12-20T06:55:33;7.50;99.90
39493;DHT22;25176;51.060;3.720;2023-12-20T06:57:58;7.50;99.90
39493;DHT22;25176;51.060;3.720;2023-12-20T07:00:24;7.50;99.90
39493;DHT22;25176;51.060;3.720;2023-12-20T07:02:49;7.50;99.90
39493;DHT22;25176;51.060;3.720;2023-12-20T07:05:18;7.50;99.90
39493;DHT22;25176;51.060;3.720;2023-12-20T07:07:45;7.50;99.90
39493;DHT22;25176;51.060;3.720;2023-12-20T07:10:11;7.40;99.90
39493;DHT22;25176;51.060;3.720;2023-12-20T07:12:37;7.50;99.90
39493;DHT22;25176;51.060;3.720;2023-12-20T07:15:03;7.50;99.90
39493;DHT22;25176;51.060;3.720;2023-12-20T07:17:28;7.40;99.90
39493;DHT22;25176;51.060;3.720;2023-12-20T07:19:54;7.50;99.90
39493;DHT22;25176;51.060;3.720;2023-12-20T07:22:19;7.50;99.90
39493;DHT22;25176;51.060;3.720;2023-12-20T07:24:45;7.40;99.90
39493;DHT22;25176;51.060;3.720;2023-12-20T07:27:11;7.40;99.90
39493;DHT22;25176;51.060;3.720;2023-12-20T07:29:37;7.50;99.90
39493;DHT22;25176;51.060;3.720;2023-12-20T07:32:03;7.50;99.90
39493;DHT22;25176;51.060;3.720;2023-12-20T07:34:28;7.50;99.90
39493;DHT22;25176;51.060;3.720;2023-12-20T07:36:54;7.50;99.90
39493;DHT22;25176;51.060;3.720;2023-12-20T07:39:19;7.50;99.90
39493;DHT22;25176;51.060;3.720;2023-12-20T07:41:47;7.50;99.90
39493;DHT22;25176;51.060;3.720;2023-12-20T07:44:12;7.50;99.90
39493;DHT22;25176;51.060;3.720;2023-12-20T07:46:38;7.50;99.90
39493;DHT22;25176;51.060;3.720;2023-12-20T07:49:04;7.50;99.90
39493;DHT22;25176;51.060;3.720;2023-12-20T07:51:30;7.50;99.90
39493;DHT22;25176;51.060;3.720;2023-12-20T07:53:56;7.50;99.90
39493;DHT22;25176;51.060;3.720;2023-12-20T07:56:21;7.50;99.90
39493;DHT22;25176;51.060;3.720;2023-12-20T07:58:47;7.50;99.90
39493;DHT22;25176;51.060;3.720;2023-12-20T08:01:13;7.40;99.90
39493;DHT22;25176;51.060;3.720;2023-12-20T08:03:39;7.40;99.90
39493;DHT22;25176;51.060;3.720;2023-12-20T08:06:04;7.40;99.90
39493;DHT22;25176;51.060;3.720;2023-12-20T08:08:30;7.40;99.90
39493;DHT22;25176;51.060;3.720;2023-12-20T08:10:56;7.40;99.90
39493;DHT22;25176;51.060;3.720;2023-12-20T08:13:25;7.40;99.90
39493;DHT22;25176;51.060;3.720;2023-12-20T08:15:51;7.50;99.90
39493;DHT22;25176;51.060;3.720;2023-12-20T08:18:17;7.40;99.90
39493;DHT22;25176;51.060;3.720;2023-12-20T08:20:43;7.50;99.90
39493;DHT22;25176;51.060;3.720;2023-12-20T08:23:08;7.50;99.90
39493;DHT22;25176;51.060;3.720;2023-12-20T08:25:34;7.40;99.90
39493;DHT22;25176;51.060;3.720;2023-12-20T08:28:01;7.50;99.90
39493;DHT22;25176;51.060;3.720;2023-12-20T08:30:26;7.50;99.90
39493;DHT22;25176;51.060;3.720;2023-12-20T08:32:52;7.50;99.90
39493;DHT22;25176;51.060;3.720;2023-12-20T08:35:18;7.60;99.90
39493;DHT22;25176;51.060;3.720;2023-12-20T08:37:44;7.60;99.90
39493;DHT22;25176;51.060;3.720;2023-12-20T08:40:10;7.60;99.90
39493;DHT22;25176;51.060;3.720;2023-12-20T08:42:35;7.60;99.90
39493;DHT22;25176;51.060;3.720;2023-12-20T08:45:01;7.70;99.90
39493;DHT22;25176;51.060;3.720;2023-12-20T08:47:29;7.70;99.90
39493;DHT22;25176;51.060;3.720;2023-12-20T08:49:54;7.70;99.90
39493;DHT22;25176;51.060;3.720;2023-12-20T08:52:22;8.00;99.90
39493;DHT22;25176;51.060;3.720;2023-12-20T08:54:47;8.00;99.90
39493;DHT22;25176;51.060;3.720;2023-12-20T08:57:13;8.20;99.90
39493;DHT22;25176;51.060;3.720;2023-12-20T08:59:39;8.30;99.90
39493;DHT22;25176;51.060;3.720;2023-12-20T09:02:08;8.40;99.90
39493;DHT22;25176;51.060;3.720;2023-12-20T09:04:33;8.50;99.90
39493;DHT22;25176;51.060;3.720;2023-12-20T09:06:59;8.60;99.90
39493;DHT22;25176;51.060;3.720;2023-12-20T09:09:26;8.60;99.90
39493;DHT22;25176;51.060;3.720;2023-12-20T09:11:51;8.70;99.90
39493;DHT22;25176;51.060;3.720;2023-12-20T09:14:17;8.80;99.90
39493;DHT22;25176;51.060;3.720;2023-12-20T09:16:43;8.80;99.90
39493;DHT22;25176;51.060;3.720;2023-12-20T09:19:08;8.80;99.90
39493;DHT22;25176;51.060;3.720;2023-12-20T09:21:34;8.80;99.90
39493;DHT22;25176;51.060;3.720;2023-12-20T09:24:00;8.80;99.90
39493;DHT22;25176;51.060;3.720;2023-12-20T09:26:25;8.80;99.90
39493;DHT22;25176;51.060;3.720;2023-12-20T09:28:51;8.90;99.90
39493;DHT22;25176;51.060;3.720;2023-12-20T09:31:17;8.90;99.90
39493;DHT22;25176;51.060;3.720;2023-12-20T09:33:42;8.80;99.90
39493;DHT22;25176;51.060;3.720;2023-12-20T09:36:08;8.80;99.90
39493;DHT22;25176;51.060;3.720;2023-12-20T09:38:33;8.80;99.90
39493;DHT22;25176;51.060;3.720;2023-12-20T09:40:59;9.10;99.90
39493;DHT22;25176;51.060;3.720;2023-12-20T09:43:27;8.90;99.90
39493;DHT22;25176;51.060;3.720;2023-12-20T09:45:55;9.10;99.90
39493;DHT22;25176;51.060;3.720;2023-12-20T09:48:25;9.20;99.90
39493;DHT22;25176;51.060;3.720;2023-12-20T09:50:51;9.30;99.90
39493;DHT22;25176;51.060;3.720;2023-12-20T09:53:17;9.50;99.90
39493;DHT22;25176;51.060;3.720;2023-12-20T09:55:43;9.40;99.90
39493;DHT22;25176;51.060;3.720;2023-12-20T09:58:08;9.40;99.90
39493;DHT22;25176;51.060;3.720;2023-12-20T10:00:34;9.40;99.90
39493;DHT22;25176;51.060;3.720;2023-12-20T10:03:00;9.40;99.90
39493;DHT22;25176;51.060;3.720;2023-12-20T10:05:27;9.20;99.90
39493;DHT22;25176;51.060;3.720;2023-12-20T10:07:53;9.20;99.90
39493;DHT22;25176;51.060;3.720;2023-12-20T10:10:19;9.20;99.90
39493;DHT22;25176;51.060;3.720;2023-12-20T10:13:00;9.20;99.90
39493;DHT22;25176;51.060;3.720;2023-12-20T10:15:26;9.20;99.90
39493;DHT22;25176;51.060;3.720;2023-12-20T10:17:52;9.20;99.90
39493;DHT22;25176;51.060;3.720;2023-12-20T10:23:21;9.20;99.90
39493;DHT22;25176;51.060;3.720;2023-12-20T10:25:58;9.20;99.90
39493;DHT22;25176;51.060;3.720;2023-12-20T10:28:24;9.30;99.90
39493;DHT22;25176;51.060;3.720;2023-12-20T10:30:53;9.30;99.90
39493;DHT22;25176;51.060;3.720;2023-12-20T10:33:28;9.40;99.90
39493;DHT22;25176;51.060;3.720;2023-12-20T10:35:55;9.50;99.90
39493;DHT22;25176;51.060;3.720;2023-12-20T10:38:21;9.40;99.90
39493;DHT22;25176;51.060;3.720;2023-12-20T10:40:47;9.40;99.90
39493;DHT22;25176;51.060;3.720;2023-12-20T10:43:13;9.40;99.90
39493;DHT22;25176;51.060;3.720;2023-12-20T10:45:41;9.40;99.90
39493;DHT22;25176;51.060;3.720;2023-12-20T10:48:07;9.40;99.90
39493;DHT22;25176;51.060;3.720;2023-12-20T10:50:32;9.40;99.90
39493;DHT22;25176;51.060;3.720;2023-12-20T10:53:02;9.30;99.90
39493;DHT22;25176;51.060;3.720;2023-12-20T10:55:28;9.30;99.90
39493;DHT22;25176;51.060;3.720;2023-12-20T10:57:54;9.30;99.90
39493;DHT22;25176;51.060;3.720;2023-12-20T11:00:21;9.40;99.90
39493;DHT22;25176;51.060;3.720;2023-12-20T11:02:49;9.50;99.90
39493;DHT22;25176;51.060;3.720;2023-12-20T11:05:36;9.50;99.90
39493;DHT22;25176;51.060;3.720;2023-12-20T11:08:16;9.50;99.90
39493;DHT22;25176;51.060;3.720;2023-12-20T11:10:49;9.40;99.90
39493;DHT22;25176;51.060;3.720;2023-12-20T11:13:53;9.50;99.90
39493;DHT22;25176;51.060;3.720;2023-12-20T11:16:09;9.60;99.90
39493;DHT22;25176;51.060;3.720;2023-12-20T11:18:35;9.50;99.90
39493;DHT22;25176;51.060;3.720;2023-12-20T11:21:01;9.60;99.90
39493;DHT22;25176;51.060;3.720;2023-12-20T11:23:33;9.60;99.90
39493;DHT22;25176;51.060;3.720;2023-12-20T11:25:59;9.70;99.90
39493;DHT22;25176;51.060;3.720;2023-12-20T11:28:26;9.70;99.90
39493;DHT22;25176;51.060;3.720;2023-12-20T11:30:53;9.70;99.90
39493;DHT22;25176;51.060;3.720;2023-12-20T11:33:22;9.90;99.90
39493;DHT22;25176;51.060;3.720;2023-12-20T11:35:48;10.00;99.90
39493;DHT22;25176;51.060;3.720;2023-12-20T11:38:14;10.00;99.90
39493;DHT22;25176;51.060;3.720;2023-12-20T11:40:40;10.10;99.90
39493;DHT22;25176;51.060;3.720;2023-12-20T11:43:06;10.10;99.90
39493;DHT22;25176;51.060;3.720;2023-12-20T11:45:32;10.10;99.90
39493;DHT22;25176;51.060;3.720;2023-12-20T11:47:57;10.00;99.90
39493;DHT22;25176;51.060;3.720;2023-12-20T11:50:23;9.90;99.90
39493;DHT22;25176;51.060;3.720;2023-12-20T11:52:49;9.80;99.90
39493;DHT22;25176;51.060;3.720;2023-12-20T11:55:15;9.90;99.90
39493;DHT22;25176;51.060;3.720;2023-12-20T11:57:41;9.90;99.90
39493;DHT22;25176;51.060;3.720;2023-12-20T12:00:08;10.00;99.90
39493;DHT22;25176;51.060;3.720;2023-12-20T12:02:33;10.10;99.90
39493;DHT22;25176;51.060;3.720;2023-12-20T12:04:59;10.00;99.90
39493;DHT22;25176;51.060;3.720;2023-12-20T12:07:25;9.90;99.90
39493;DHT22;25176;51.060;3.720;2023-12-20T12:09:51;9.90;99.90
39493;DHT22;25176;51.060;3.720;2023-12-20T12:12:17;10.10;99.90
39493;DHT22;25176;51.060;3.720;2023-12-20T12:14:44;10.10;99.90
39493;DHT22;25176;51.060;3.720;2023-12-20T12:17:10;10.10;99.90
39493;DHT22;25176;51.060;3.720;2023-12-20T12:19:35;10.20;99.90
39493;DHT22;25176;51.060;3.720;2023-12-20T12:22:06;10.10;99.90
39493;DHT22;25176;51.060;3.720;2023-12-20T12:24:33;10.20;99.90
39493;DHT22;25176;51.060;3.720;2023-12-20T12:26:59;10.20;99.90
39493;DHT22;25176;51.060;3.720;2023-12-20T12:29:25;10.20;99.90
39493;DHT22;25176;51.060;3.720;2023-12-20T12:31:50;10.30;99.90
39493;DHT22;25176;51.060;3.720;2023-12-20T12:34:17;10.30;99.90
39493;DHT22;25176;51.060;3.720;2023-12-20T12:36:43;10.40;99.90
39493;DHT22;25176;51.060;3.720;2023-12-20T12:39:11;10.40;99.90
39493;DHT22;25176;51.060;3.720;2023-12-20T12:41:39;10.40;99.90
39493;DHT22;25176;51.060;3.720;2023-12-20T12:44:04;10.40;99.90
39493;DHT22;25176;51.060;3.720;2023-12-20T12:46:30;10.60;99.90
39493;DHT22;25176;51.060;3.720;2023-12-20T12:48:56;10.80;99.90
39493;DHT22;25176;51.060;3.720;2023-12-20T12:51:21;10.80;99.90
39493;DHT22;25176;51.060;3.720;2023-12-20T12:53:47;10.80;99.90
39493;DHT22;25176;51.060;3.720;2023-12-20T12:56:12;10.70;99.90
39493;DHT22;25176;51.060;3.720;2023-12-20T12:58:38;10.70;99.90
39493;DHT22;25176;51.060;3.720;2023-12-20T13:01:03;10.60;99.90
39493;DHT22;25176;51.060;3.720;2023-12-20T13:03:29;10.60;99.90
39493;DHT22;25176;51.060;3.720;2023-12-20T13:05:55;10.70;99.90
39493;DHT22;25176;51.060;3.720;2023-12-20T13:08:20;10.80;99.90
39493;DHT22;25176;51.060;3.720;2023-12-20T13:10:46;10.80;99.90
39493;DHT22;25176;51.060;3.720;2023-12-20T13:13:12;10.80;99.90
39493;DHT22;25176;51.060;3.720;2023-12-20T13:15:37;10.90;99.90
39493;DHT22;25176;51.060;3.720;2023-12-20T13:18:03;10.80;99.90
39493;DHT22;25176;51.060;3.720;2023-12-20T13:20:30;10.80;99.90
39493;DHT22;25176;51.060;3.720;2023-12-20T13:22:55;10.70;99.90
39493;DHT22;25176;51.060;3.720;2023-12-20T13:25:21;10.70;99.90
39493;DHT22;25176;51.060;3.720;2023-12-20T13:27:46;10.80;99.90
39493;DHT22;25176;51.060;3.720;2023-12-20T13:30:12;10.70;99.90
39493;DHT22;25176;51.060;3.720;2023-12-20T13:32:38;10.60;99.90
39493;DHT22;25176;51.060;3.720;2023-12-20T13:35:03;10.60;99.90
39493;DHT22;25176;51.060;3.720;2023-12-20T13:37:29;10.70;99.90
39493;DHT22;25176;51.060;3.720;2023-12-20T13:39:55;10.70;99.90
39493;DHT22;25176;51.060;3.720;2023-12-20T13:42:21;10.70;99.90
39493;DHT22;25176;51.060;3.720;2023-12-20T13:44:46;10.70;99.90
39493;DHT22;25176;51.060;3.720;2023-12-20T13:47:12;10.70;99.90
39493;DHT22;25176;51.060;3.720;2023-12-20T13:49:37;10.60;99.90
39493;DHT22;25176;51.060;3.720;2023-12-20T13:52:03;10.50;99.90
39493;DHT22;25176;51.060;3.720;2023-12-20T13:54:29;10.50;99.90
39493;DHT22;25176;51.060;3.720;2023-12-20T13:56:55;10.50;99.90
39493;DHT22;25176;51.060;3.720;2023-12-20T13:59:22;10.60;99.90
39493;DHT22;25176;51.060;3.720;2023-12-20T14:01:48;10.60;99.90
39493;DHT22;25176;51.060;3.720;2023-12-20T14:04:15;10.60;99.90
39493;DHT22;25176;51.060;3.720;2023-12-20T14:06:41;10.60;99.90
39493;DHT22;25176;51.060;3.720;2023-12-20T14:09:07;10.60;99.90
39493;DHT22;25176;51.060;3.720;2023-12-20T14:11:33;10.50;99.90
39493;DHT22;25176;51.060;3.720;2023-12-20T14:13:59;10.50;99.90
39493;DHT22;25176;51.060;3.720;2023-12-20T14:16:27;10.50;99.90
39493;DHT22;25176;51.060;3.720;2023-12-20T14:18:53;10.50;99.90
39493;DHT22;25176;51.060;3.720;2023-12-20T14:21:23;10.50;99.90
39493;DHT22;25176;51.060;3.720;2023-12-20T14:23:49;10.60;99.90
39493;DHT22;25176;51.060;3.720;2023-12-20T14:26:15;10.60;99.90
39493;DHT22;25176;51.060;3.720;2023-12-20T14:28:41;10.80;99.90
39493;DHT22;25176;51.060;3.720;2023-12-20T14:31:07;10.60;99.90
39493;DHT22;25176;51.060;3.720;2023-12-20T14:33:33;10.60;99.90
39493;DHT22;25176;51.060;3.720;2023-12-20T14:35:59;10.60;99.90
39493;DHT22;25176;51.060;3.720;2023-12-20T14:38:24;10.60;99.90
39493;DHT22;25176;51.060;3.720;2023-12-20T14:40:51;10.60;99.90
39493;DHT22;25176;51.060;3.720;2023-12-20T14:43:16;10.60;99.90
39493;DHT22;25176;51.060;3.720;2023-12-20T14:45:42;10.70;99.90
39493;DHT22;25176;51.060;3.720;2023-12-20T14:48:07;10.60;99.90
39493;DHT22;25176;51.060;3.720;2023-12-20T14:50:33;10.60;99.90
39493;DHT22;25176;51.060;3.720;2023-12-20T14:52:58;10.60;99.90
39493;DHT22;25176;51.060;3.720;2023-12-20T14:55:25;10.50;99.90
39493;DHT22;25176;51.060;3.720;2023-12-20T14:57:52;10.50;99.90
39493;DHT22;25176;51.060;3.720;2023-12-20T15:00:18;10.60;99.90
39493;DHT22;25176;51.060;3.720;2023-12-20T15:02:45;10.60;99.90
39493;DHT22;25176;51.060;3.720;2023-12-20T15:05:11;10.60;99.90
39493;DHT22;25176;51.060;3.720;2023-12-20T15:07:36;10.70;99.90
39493;DHT22;25176;51.060;3.720;2023-12-20T15:10:02;10.70;99.90
39493;DHT22;25176;51.060;3.720;2023-12-20T15:12:27;10.70;99.90
39493;DHT22;25176;51.060;3.720;2023-12-20T15:14:53;10.60;99.90
39493;DHT22;25176;51.060;3.720;2023-12-20T15:17:18;10.60;99.90
39493;DHT22;25176;51.060;3.720;2023-12-20T15:19:44;10.60;99.90
39493;DHT22;25176;51.060;3.720;2023-12-20T15:22:10;10.50;99.90
39493;DHT22;25176;51.060;3.720;2023-12-20T15:24:38;10.40;99.90
39493;DHT22;25176;51.060;3.720;2023-12-20T15:27:06;10.50;99.90
39493;DHT22;25176;51.060;3.720;2023-12-20T15:29:32;10.50;99.90
39493;DHT22;25176;51.060;3.720;2023-12-20T15:31:57;10.50;99.90
39493;DHT22;25176;51.060;3.720;2023-12-20T15:34:23;10.50;99.90
39493;DHT22;25176;51.060;3.720;2023-12-20T15:36:48;10.50;99.90